Time,TemperatureF,DewpointF,PressureIn,WindDirection,WindDirectionDegrees,WindSpeedMPH,WindSpeedGustMPH,Humidity,HourlyPrecipIn,Conditions,Clouds,dailyrainin,SoftwareType,DateUTC
2013-04-12 00:03:00,39.0,38.0,29.62,NE,42,9.0,15.0,97,0.03,,,0.92,,2013-04-12 04:03:00,
2013-04-12 00:13:00,39.0,38.0,29.62,NE,42,9.0,15.0,97,0.03,,,0.92,,2013-04-12 04:13:00,
2013-04-12 00:23:00,39.0,38.0,29.62,ENE,64,8.0,14.0,97,0.04,,,0.90,,2013-04-12 04:23:00,
2013-04-12 00:33:00,39.0,38.0,29.61,NNE,30,6.0,13.0,97,0.05,,,0.91,,2013-04-12 04:33:00,
2013-04-12 00:43:00,39.0,38.0,29.61,NNE,30,6.0,13.0,97,0.05,,,0.91,,2013-04-12 04:43:00,
2013-04-12 00:53:00,39.0,38.0,29.61,NE,44,3.0,4.0,97,0.07,,,0.93,,2013-04-12 04:53:00,
2013-04-12 01:03:00,39.0,38.0,29.61,NNE,25,0.0,6.0,97,0.05,,,0.94,,2013-04-12 05:03:00,
2013-04-12 01:12:00,39.0,38.0,29.61,NNE,25,0.0,6.0,97,0.05,,,0.94,,2013-04-12 05:12:00,
2013-04-12 01:23:00,39.0,38.0,29.62,NNE,18,0.0,3.0,97,0.04,,,0.92,,2013-04-12 05:23:00,
2013-04-12 01:32:00,40.0,39.0,29.61,NNE,16,2.0,4.0,97,0.05,,,0.94,,2013-04-12 05:32:00,
2013-04-12 01:42:00,40.0,39.0,29.61,NNE,16,2.0,4.0,97,0.05,,,0.94,,2013-04-12 05:42:00,
2013-04-12 01:52:00,40.0,39.0,29.59,NNE,30,4.0,7.0,97,0.04,,,0.95,,2013-04-12 05:52:00,
2013-04-12 02:02:00,40.0,39.0,29.59,North,360,4.0,7.0,97,0.04,,,0.96,,2013-04-12 06:02:00,
2013-04-12 02:12:00,40.0,39.0,29.59,North,360,4.0,7.0,97,0.04,,,0.96,,2013-04-12 06:12:00,
2013-04-12 02:22:00,40.0,39.0,29.59,NNE,23,1.0,5.0,97,0.04,,,0.82,,2013-04-12 06:22:00,
2013-04-12 02:32:00,40.0,39.0,29.59,NNE,28,3.0,6.0,96,0.02,,,0.82,,2013-04-12 06:32:00,
2013-04-12 02:42:00,40.0,39.0,29.59,NNE,28,3.0,6.0,96,0.02,,,0.82,,2013-04-12 06:42:00,
2013-04-12 02:52:00,40.0,39.0,29.59,NNE,22,3.0,7.0,96,0.01,,,0.82,,2013-04-12 06:52:00,
2013-04-12 03:02:00,39.0,38.0,29.59,North,5,3.0,7.0,96,0.00,,,0.82,,2013-04-12 07:02:00,
2013-04-12 03:12:00,39.0,38.0,29.59,North,5,3.0,7.0,96,0.00,,,0.82,,2013-04-12 07:12:00,
2013-04-12 03:22:00,39.0,38.0,29.59,NNW,338,1.0,5.0,96,0.01,,,0.80,,2013-04-12 07:22:00,
2013-04-12 03:32:00,40.0,39.0,29.60,NNW,339,0.0,3.0,96,0.03,,,0.82,,2013-04-12 07:32:00,
2013-04-12 03:42:00,40.0,39.0,29.60,NNW,339,0.0,3.0,96,0.03,,,0.82,,2013-04-12 07:42:00,
2013-04-12 03:52:00,40.0,39.0,29.60,NNW,338,0.0,0.0,96,0.04,,,0.83,,2013-04-12 07:52:00,
2013-04-12 04:03:00,40.0,39.0,29.59,NNW,338,0.0,2.0,96,0.05,,,0.84,,2013-04-12 08:03:00,
2013-04-12 04:12:00,40.0,39.0,29.59,NNW,338,0.0,2.0,96,0.05,,,0.84,,2013-04-12 08:12:00,
2013-04-12 04:22:00,39.0,38.0,29.59,NNW,343,1.0,3.0,96,0.05,,,0.72,,2013-04-12 08:22:00,
2013-04-12 04:32:00,40.0,39.0,29.59,NNW,336,0.0,3.0,96,0.03,,,0.72,,2013-04-12 08:32:00,
2013-04-12 04:42:00,40.0,39.0,29.59,NNW,336,0.0,3.0,96,0.03,,,0.72,,2013-04-12 08:42:00,
2013-04-12 04:52:00,40.0,39.0,29.58,NNW,336,0.0,4.0,96,0.04,,,0.74,,2013-04-12 08:52:00,
2013-04-12 05:02:00,39.0,38.0,29.60,West,267,0.0,3.0,96,0.03,,,0.74,,2013-04-12 09:02:00,
2013-04-12 05:12:00,39.0,38.0,29.60,West,267,0.0,3.0,96,0.03,,,0.74,,2013-04-12 09:12:00,
2013-04-12 05:22:00,39.0,38.0,29.60,West,275,1.0,5.0,96,0.02,,,0.43,,2013-04-12 09:22:00,
2013-04-12 05:33:00,39.0,38.0,29.60,West,275,0.0,3.0,97,0.02,,,0.43,,2013-04-12 09:33:00,
2013-04-12 05:53:00,39.0,38.0,29.60,West,275,0.0,2.0,96,0.00,,,0.43,,2013-04-12 09:53:00,
2013-04-12 06:03:00,39.0,38.0,29.60,West,275,0.0,2.0,96,0.00,,,0.43,,2013-04-12 10:03:00,
2013-04-12 06:13:00,39.0,38.0,29.60,West,275,0.0,2.0,96,0.00,,,0.43,,2013-04-12 10:13:00,
2013-04-12 06:23:00,39.0,38.0,29.60,West,275,0.0,2.0,96,0.00,,,0.34,,2013-04-12 10:23:00,
2013-04-12 06:34:00,39.0,38.0,29.61,West,275,0.0,3.0,97,0.00,,,0.34,,2013-04-12 10:34:00,
2013-04-12 06:43:00,39.0,38.0,29.61,West,275,0.0,3.0,97,0.00,,,0.34,,2013-04-12 10:43:00,
2013-04-12 06:53:00,39.0,38.0,29.61,West,275,0.0,3.0,97,0.00,,,0.34,,2013-04-12 10:53:00,
2013-04-12 07:03:00,39.0,38.0,29.61,West,275,1.0,4.0,97,0.00,,,0.34,,2013-04-12 11:03:00,
2013-04-12 07:13:00,39.0,38.0,29.61,West,275,1.0,4.0,97,0.00,,,0.34,,2013-04-12 11:13:00,
2013-04-12 07:22:00,39.0,38.0,29.62,West,275,0.0,3.0,97,0.00,,,0.32,,2013-04-12 11:22:00,
2013-04-12 07:32:00,39.0,38.0,29.62,West,275,0.0,2.0,97,0.00,,,0.32,,2013-04-12 11:32:00,
2013-04-12 07:43:00,39.0,38.0,29.62,West,275,0.0,2.0,97,0.00,,,0.32,,2013-04-12 11:43:00,
2013-04-12 07:52:00,39.0,38.0,29.63,SW,219,3.0,6.0,97,0.00,,,0.32,,2013-04-12 11:52:00,
2013-04-12 08:02:00,40.0,39.0,29.63,SW,225,5.0,10.0,97,0.00,,,0.32,,2013-04-12 12:02:00,
2013-04-12 08:13:00,40.0,39.0,29.63,SW,225,5.0,10.0,97,0.00,,,0.32,,2013-04-12 12:13:00,
2013-04-12 08:22:00,40.0,39.0,29.63,SW,220,6.0,10.0,97,0.00,,,0.30,,2013-04-12 12:22:00,
2013-04-12 08:33:00,40.0,39.0,29.64,SSW,213,5.0,10.0,96,0.00,,,0.30,,2013-04-12 12:33:00,
2013-04-12 08:42:00,40.0,39.0,29.64,SSW,213,5.0,10.0,96,0.00,,,0.30,,2013-04-12 12:42:00,
2013-04-12 08:53:00,40.0,39.0,29.64,West,261,5.0,14.0,95,0.00,,,0.30,,2013-04-12 12:53:00,
2013-04-12 09:03:00,40.0,38.0,29.65,SW,233,7.0,13.0,94,0.00,,,0.30,,2013-04-12 13:03:00,
2013-04-12 09:12:00,40.0,38.0,29.65,SW,233,7.0,13.0,94,0.00,,,0.30,,2013-04-12 13:12:00,
2013-04-12 09:22:00,40.0,38.0,29.65,WSW,245,7.0,16.0,92,0.00,,,0.30,,2013-04-12 13:22:00,
2013-04-12 09:32:00,40.0,38.0,29.66,WSW,242,5.0,11.0,91,0.00,,,0.30,,2013-04-12 13:32:00,
2013-04-12 09:42:00,40.0,38.0,29.66,WSW,242,5.0,11.0,91,0.00,,,0.30,,2013-04-12 13:42:00,
2013-04-12 09:53:00,40.0,38.0,29.66,WSW,240,4.0,10.0,92,0.00,,,0.30,,2013-04-12 13:53:00,
2013-04-12 10:03:00,40.0,38.0,29.66,SW,220,4.0,10.0,92,0.00,,,0.30,,2013-04-12 14:03:00,
2013-04-12 10:13:00,40.0,38.0,29.66,SW,220,4.0,10.0,92,0.00,,,0.30,,2013-04-12 14:13:00,
2013-04-12 10:33:00,40.0,36.0,29.67,WSW,243,7.0,16.0,86,0.00,,,0.30,,2013-04-12 14:33:00,
2013-04-12 10:42:00,40.0,36.0,29.67,WSW,243,7.0,16.0,86,0.00,,,0.30,,2013-04-12 14:42:00,
2013-04-12 10:54:00,40.0,36.0,29.68,WSW,246,5.0,16.0,85,0.00,,,0.30,,2013-04-12 14:54:00,
2013-04-12 11:03:00,40.0,36.0,29.69,SW,224,8.0,20.0,85,0.00,,,0.30,,2013-04-12 15:03:00,
2013-04-12 11:12:00,40.0,36.0,29.69,SW,224,8.0,20.0,85,0.00,,,0.30,,2013-04-12 15:12:00,
2013-04-12 11:22:00,40.0,36.0,29.69,SSW,202,5.0,14.0,86,0.00,,,0.30,,2013-04-12 15:22:00,
2013-04-12 11:33:00,40.0,36.0,29.70,SW,225,8.0,15.0,84,0.00,,,0.30,,2013-04-12 15:33:00,
2013-04-12 11:43:00,40.0,36.0,29.70,SW,225,8.0,15.0,84,0.00,,,0.30,,2013-04-12 15:43:00,
2013-04-12 11:53:00,39.0,34.0,29.70,SW,224,9.0,16.0,83,0.00,,,0.30,,2013-04-12 15:53:00,
2013-04-12 12:04:00,39.0,34.0,29.71,SW,234,7.0,17.0,82,0.00,,,0.30,,2013-04-12 16:04:00,
2013-04-12 12:13:00,39.0,34.0,29.71,SW,234,7.0,17.0,82,0.00,,,0.30,,2013-04-12 16:13:00,
2013-04-12 12:23:00,40.0,35.0,29.71,WSW,251,6.0,18.0,81,0.00,,,0.30,,2013-04-12 16:23:00,
2013-04-12 12:33:00,41.0,34.0,29.71,WSW,255,7.0,16.0,77,0.00,,,0.30,,2013-04-12 16:33:00,
2013-04-12 12:42:00,41.0,34.0,29.71,WSW,255,7.0,16.0,77,0.00,,,0.30,,2013-04-12 16:42:00,
2013-04-12 12:52:00,41.0,34.0,29.71,WSW,255,7.0,16.0,77,0.00,,,0.30,,2013-04-12 16:52:00,
2013-04-12 13:03:00,40.0,33.0,29.72,WSW,237,8.0,17.0,77,0.00,,,0.30,,2013-04-12 17:03:00,
2013-04-12 13:12:00,40.0,33.0,29.72,WSW,237,8.0,17.0,77,0.00,,,0.30,,2013-04-12 17:12:00,
2013-04-12 13:23:00,40.0,33.0,29.72,SW,227,7.0,17.0,77,0.00,,,0.30,,2013-04-12 17:23:00,
2013-04-12 13:34:00,40.0,34.0,29.72,West,272,7.0,14.0,79,0.00,,,0.30,,2013-04-12 17:34:00,
2013-04-12 13:46:00,40.0,34.0,29.72,West,272,7.0,14.0,79,0.00,,,0.30,,2013-04-12 17:46:00,
2013-04-12 13:59:00,40.0,34.0,29.72,SSW,206,5.0,20.0,79,0.00,,,0.30,,2013-04-12 17:59:00,
2013-04-12 14:10:00,40.0,35.0,29.72,SW,223,7.0,19.0,81,0.00,,,0.30,,2013-04-12 18:10:00,
2013-04-12 14:24:00,40.0,35.0,29.72,SW,223,7.0,19.0,81,0.00,,,0.30,,2013-04-12 18:24:00,
2013-04-12 15:27:00,41.0,35.0,29.74,WSW,246,4.0,14.0,80,0.00,,,0.30,,2013-04-12 19:27:00,
2013-04-12 15:33:00,41.0,36.0,29.75,SW,225,6.0,15.0,81,0.00,,,0.30,,2013-04-12 19:33:00,
2013-04-12 15:43:00,41.0,36.0,29.75,SW,225,6.0,15.0,81,0.00,,,0.30,,2013-04-12 19:43:00,
2013-04-12 15:52:00,41.0,35.0,29.75,SW,228,8.0,16.0,79,0.00,,,0.30,,2013-04-12 19:52:00,
2013-04-12 16:02:00,41.0,35.0,29.76,SSW,210,7.0,15.0,78,0.00,,,0.30,,2013-04-12 20:02:00,
2013-04-12 16:13:00,41.0,35.0,29.76,SSW,210,7.0,15.0,78,0.00,,,0.30,,2013-04-12 20:13:00,
2013-04-12 16:22:00,41.0,35.0,29.76,SW,216,8.0,15.0,79,0.00,,,0.30,,2013-04-12 20:22:00,
2013-04-12 16:32:00,41.0,35.0,29.76,SW,225,8.0,14.0,80,0.00,,,0.30,,2013-04-12 20:32:00,
2013-04-12 16:43:00,41.0,35.0,29.76,SW,225,8.0,14.0,80,0.00,,,0.30,,2013-04-12 20:43:00,
2013-04-12 16:52:00,41.0,35.0,29.77,SW,225,6.0,16.0,80,0.00,,,0.30,,2013-04-12 20:52:00,
2013-04-12 17:03:00,42.0,36.0,29.77,SSW,208,6.0,12.0,80,0.00,,,0.30,,2013-04-12 21:03:00,
2013-04-12 17:12:00,42.0,36.0,29.77,SSW,208,6.0,12.0,80,0.00,,,0.30,,2013-04-12 21:12:00,
2013-04-12 17:22:00,42.0,36.0,29.77,SSW,211,8.0,19.0,79,0.00,,,0.30,,2013-04-12 21:22:00,
2013-04-12 17:33:00,42.0,36.0,29.78,SSW,204,8.0,19.0,79,0.00,,,0.30,,2013-04-12 21:33:00,
2013-04-12 17:43:00,42.0,36.0,29.78,SSW,204,8.0,19.0,79,0.00,,,0.30,,2013-04-12 21:43:00,
2013-04-12 17:52:00,42.0,37.0,29.78,South,187,6.0,10.0,83,0.00,,,0.30,,2013-04-12 21:52:00,
2013-04-12 18:02:00,42.0,37.0,29.78,SW,227,7.0,14.0,81,0.00,,,0.30,,2013-04-12 22:02:00,
2013-04-12 18:13:00,42.0,37.0,29.78,SW,227,7.0,14.0,81,0.00,,,0.30,,2013-04-12 22:13:00,
2013-04-12 18:22:00,42.0,36.0,29.78,SW,225,8.0,16.0,80,0.00,,,0.30,,2013-04-12 22:22:00,
2013-04-12 18:33:00,42.0,38.0,29.79,SW,232,4.0,19.0,84,0.00,,,0.30,,2013-04-12 22:33:00,
2013-04-12 18:43:00,42.0,38.0,29.79,SW,232,4.0,19.0,84,0.00,,,0.30,,2013-04-12 22:43:00,
2013-04-12 18:52:00,42.0,37.0,29.80,SW,217,5.0,13.0,82,0.00,,,0.30,,2013-04-12 22:52:00,
2013-04-12 19:04:00,42.0,38.0,29.81,SSW,208,6.0,18.0,85,0.00,,,0.30,,2013-04-12 23:04:00,
2013-04-12 19:12:00,42.0,38.0,29.81,SSW,208,6.0,18.0,85,0.00,,,0.30,,2013-04-12 23:12:00,
2013-04-12 19:22:00,41.0,37.0,29.81,SSW,211,5.0,16.0,86,0.00,,,0.30,,2013-04-12 23:22:00,
2013-04-12 19:32:00,41.0,37.0,29.81,SW,221,6.0,17.0,84,0.00,,,0.30,,2013-04-12 23:32:00,
2013-04-12 19:42:00,41.0,37.0,29.81,SW,221,6.0,17.0,84,0.00,,,0.30,,2013-04-12 23:42:00,
2013-04-12 19:52:00,42.0,38.0,29.81,SW,221,6.0,14.0,84,0.00,,,0.30,,2013-04-12 23:52:00,
2013-04-12 20:02:00,42.0,38.0,29.81,SSW,212,6.0,14.0,84,0.00,,,0.30,,2013-04-13 00:02:00,
2013-04-12 20:12:00,42.0,38.0,29.81,SSW,212,6.0,14.0,84,0.00,,,0.30,,2013-04-13 00:12:00,
2013-04-12 20:22:00,42.0,38.0,29.81,SSW,198,6.0,11.0,84,0.00,,,0.30,,2013-04-13 00:22:00,
2013-04-12 20:32:00,42.0,38.0,29.81,SSW,198,6.0,11.0,84,0.00,,,0.30,,2013-04-13 00:32:00,
2013-04-12 20:42:00,42.0,38.0,29.81,SSW,198,6.0,11.0,84,0.00,,,0.30,,2013-04-13 00:42:00,
2013-04-12 20:52:00,42.0,38.0,29.82,West,269,7.0,17.0,86,0.00,,,0.30,,2013-04-13 00:52:00,
2013-04-12 21:02:00,41.0,37.0,29.82,SW,232,8.0,18.0,87,0.00,,,0.30,,2013-04-13 01:02:00,
2013-04-12 21:13:00,41.0,37.0,29.82,SW,232,8.0,18.0,87,0.00,,,0.30,,2013-04-13 01:13:00,
2013-04-12 21:22:00,41.0,38.0,29.83,SW,234,6.0,13.0,88,0.00,,,0.30,,2013-04-13 01:22:00,
2013-04-12 21:33:00,41.0,38.0,29.83,SSW,213,7.0,13.0,90,0.00,,,0.26,,2013-04-13 01:33:00,
2013-04-12 21:43:00,41.0,38.0,29.83,SSW,213,7.0,13.0,90,0.00,,,0.26,,2013-04-13 01:43:00,
2013-04-12 21:52:00,41.0,39.0,29.83,SW,226,6.0,14.0,92,0.00,,,0.26,,2013-04-13 01:52:00,
2013-04-12 22:02:00,41.0,39.0,29.84,West,269,4.0,11.0,91,0.00,,,0.26,,2013-04-13 02:02:00,
2013-04-12 22:12:00,41.0,39.0,29.84,West,269,4.0,11.0,91,0.00,,,0.26,,2013-04-13 02:12:00,
2013-04-12 22:23:00,41.0,38.0,29.84,WSW,257,6.0,12.0,90,0.00,,,0.26,,2013-04-13 02:23:00,
2013-04-12 22:33:00,41.0,38.0,29.84,SW,236,7.0,14.0,90,0.00,,,0.20,,2013-04-13 02:33:00,
2013-04-12 22:42:00,41.0,38.0,29.84,SW,236,7.0,14.0,90,0.00,,,0.20,,2013-04-13 02:42:00,
2013-04-12 22:52:00,41.0,38.0,29.85,SW,222,7.0,16.0,90,0.00,,,0.20,,2013-04-13 02:52:00,
2013-04-12 23:03:00,41.0,38.0,29.85,WSW,238,9.0,15.0,88,0.00,,,0.20,,2013-04-13 03:03:00,
2013-04-12 23:12:00,41.0,38.0,29.85,WSW,238,9.0,15.0,88,0.00,,,0.20,,2013-04-13 03:12:00,
2013-04-12 23:23:00,41.0,38.0,29.86,SW,225,5.0,12.0,88,0.00,,,0.20,,2013-04-13 03:23:00,
2013-04-12 23:33:00,41.0,38.0,29.86,WSW,249,8.0,17.0,88,0.00,,,0.20,,2013-04-13 03:33:00,
2013-04-12 23:43:00,41.0,38.0,29.86,WSW,249,8.0,17.0,88,0.00,,,0.20,,2013-04-13 03:43:00,
2013-04-12 23:53:00,41.0,37.0,29.86,WSW,239,7.0,15.0,87,0.00,,,0.20,,2013-04-13 03:53:00,